createdAt,value
2019-06-26T00:01:32.269Z,25.40
2019-06-26T00:04:03.655Z,25.40
2019-06-26T00:06:34.994Z,25.40
2019-06-26T00:09:09.119Z,25.40
2019-06-26T00:11:40.680Z,25.40
2019-06-26T00:14:12.108Z,25.30
2019-06-26T00:16:43.919Z,25.20
2019-06-26T00:19:15.313Z,25.20
2019-06-26T00:21:47.084Z,25.10
2019-06-26T00:24:18.383Z,25.10
2019-06-26T00:26:49.732Z,25.00
2019-06-26T00:29:21.273Z,24.80
2019-06-26T00:31:53.093Z,24.80
2019-06-26T00:34:24.320Z,24.70
2019-06-26T00:36:55.623Z,24.60
2019-06-26T00:39:27.425Z,24.60
2019-06-26T00:41:58.828Z,24.60
2019-06-26T00:44:30.120Z,24.60
2019-06-26T00:47:01.450Z,24.60
2019-06-26T00:49:32.973Z,24.60
2019-06-26T00:52:04.296Z,24.60
2019-06-26T00:54:35.862Z,24.60
2019-06-26T00:57:07.272Z,24.50
2019-06-26T00:59:38.832Z,24.50
2019-06-26T01:02:10.456Z,24.50
2019-06-26T01:04:44.165Z,24.50
2019-06-26T01:07:15.597Z,24.50
2019-06-26T01:09:47.017Z,24.50
2019-06-26T01:12:18.748Z,24.40
2019-06-26T01:14:50.375Z,24.50
2019-06-26T01:17:21.668Z,24.40
2019-06-26T01:19:52.952Z,24.40
2019-06-26T01:22:24.918Z,24.40
2019-06-26T01:24:57.063Z,24.40
2019-06-26T01:27:29.137Z,24.40
2019-06-26T01:30:00.642Z,24.30
2019-06-26T01:32:31.932Z,24.30
2019-06-26T01:35:03.388Z,24.30
2019-06-26T01:37:34.767Z,24.30
2019-06-26T01:40:06.616Z,24.20
2019-06-26T01:42:37.941Z,24.20
2019-06-26T01:45:10.196Z,24.30
2019-06-26T01:47:41.463Z,24.30
2019-06-26T01:50:13.411Z,24.20
2019-06-26T01:52:44.783Z,24.20
2019-06-26T01:55:16.456Z,24.10
2019-06-26T01:57:47.766Z,24.10
2019-06-26T02:00:20.018Z,24.00
2019-06-26T02:02:51.371Z,24.00
2019-06-26T02:05:22.646Z,24.00
2019-06-26T02:07:54.463Z,24.00
2019-06-26T02:10:25.870Z,24.00
2019-06-26T02:12:57.175Z,24.00
2019-06-26T02:15:28.783Z,24.00
2019-06-26T02:18:00.381Z,23.90
2019-06-26T02:20:31.620Z,23.90
2019-06-26T02:23:02.834Z,23.90
2019-06-26T02:25:34.247Z,23.90
2019-06-26T02:28:05.909Z,23.80
2019-06-26T02:30:37.232Z,23.70
2019-06-26T02:33:08.609Z,23.70
2019-06-26T02:35:39.865Z,23.70
2019-06-26T02:38:11.451Z,23.60
2019-06-26T02:40:42.887Z,23.60
2019-06-26T02:43:14.236Z,23.60
2019-06-26T02:45:45.585Z,23.60
2019-06-26T02:48:17.041Z,23.50
2019-06-26T02:50:48.340Z,23.50
2019-06-26T02:53:19.728Z,23.40
2019-06-26T02:55:51.486Z,23.40
2019-06-26T02:58:22.800Z,23.40
2019-06-26T03:00:54.188Z,23.40
2019-06-26T03:03:25.580Z,23.40
2019-06-26T03:05:56.939Z,23.40
2019-06-26T03:08:28.215Z,23.40
2019-06-26T03:10:59.996Z,23.40
2019-06-26T03:13:31.670Z,23.30
2019-06-26T03:16:03.249Z,23.30
2019-06-26T03:18:35.030Z,23.30
2019-06-26T03:21:06.407Z,23.20
2019-06-26T03:23:37.703Z,23.20
2019-06-26T03:26:09.315Z,23.20
2019-06-26T03:28:40.647Z,23.20
2019-06-26T03:31:12.023Z,23.20
2019-06-26T03:33:44.673Z,23.20
2019-06-26T03:36:15.958Z,23.20
2019-06-26T03:38:47.291Z,23.20
2019-06-26T03:41:18.607Z,23.20
2019-06-26T03:43:50.290Z,23.20
2019-06-26T03:46:21.650Z,23.20
2019-06-26T03:48:53.700Z,23.20
2019-06-26T03:51:25.360Z,23.10
2019-06-26T03:53:56.681Z,23.20
2019-06-26T03:56:28.129Z,23.20
2019-06-26T03:58:59.342Z,23.20
2019-06-26T04:01:30.623Z,23.30
2019-06-26T04:04:02.003Z,23.30
2019-06-26T04:06:33.279Z,23.20
2019-06-26T04:09:05.443Z,23.20
2019-06-26T04:11:36.734Z,23.20
2019-06-26T04:14:10.149Z,23.30
2019-06-26T04:16:44.455Z,23.30
2019-06-26T04:19:15.797Z,23.40
2019-06-26T04:21:47.117Z,23.40
2019-06-26T04:24:18.784Z,23.50
2019-06-26T04:26:50.671Z,23.50
2019-06-26T04:29:22.363Z,23.60
2019-06-26T04:31:53.694Z,23.70
2019-06-26T04:34:25.165Z,23.70
2019-06-26T04:37:14.300Z,23.80
2019-06-26T04:40:03.705Z,24.30
2019-06-26T04:42:52.860Z,24.40
2019-06-26T04:45:57.093Z,24.30
2019-06-26T04:48:33.446Z,24.30
2019-06-26T04:51:22.923Z,24.30
2019-06-26T04:54:12.314Z,24.30
2019-06-26T04:57:01.748Z,24.30
2019-06-26T04:59:51.324Z,24.10
2019-06-26T05:02:40.865Z,24.00
2019-06-26T05:05:39.519Z,24.20
2019-06-26T05:08:21.883Z,24.50
2019-06-26T05:11:12.769Z,24.70
2019-06-26T05:14:02.702Z,24.90
2019-06-26T05:16:51.981Z,25.20
2019-06-26T05:19:41.146Z,25.90
2019-06-26T05:22:30.431Z,26.90
2019-06-26T05:25:20.060Z,28.40
2019-06-26T05:28:09.222Z,29.40
2019-06-26T05:30:58.631Z,30.30
2019-06-26T05:33:47.936Z,31.00
2019-06-26T05:36:36.816Z,31.30
2019-06-26T05:39:45.195Z,31.90
2019-06-26T05:42:34.160Z,32.10
2019-06-26T05:45:23.856Z,32.40
2019-06-26T05:48:12.589Z,32.50
2019-06-26T05:51:02.103Z,32.90
2019-06-26T05:53:51.473Z,32.30
2019-06-26T05:56:40.897Z,32.30
2019-06-26T05:59:30.147Z,32.30
2019-06-26T06:02:19.500Z,32.60
2019-06-26T06:05:09.524Z,33.30
2019-06-26T06:07:58.673Z,33.10
2019-06-26T06:10:48.205Z,33.00
2019-06-26T06:13:37.270Z,33.50
2019-06-26T06:16:26.473Z,32.90
2019-06-26T06:19:15.728Z,33.20
2019-06-26T06:22:04.896Z,33.80
2019-06-26T06:24:54.363Z,34.40
2019-06-26T06:27:43.167Z,34.20
2019-06-26T06:30:32.419Z,34.30
2019-06-26T06:33:21.943Z,34.10
2019-06-26T06:36:11.566Z,34.00
2019-06-26T06:39:01.081Z,34.40
2019-06-26T06:41:50.451Z,34.70
2019-06-26T06:44:39.810Z,33.90
2019-06-26T06:47:28.562Z,33.70
2019-06-26T06:50:18.426Z,34.30
2019-06-26T06:53:08.102Z,34.30
2019-06-26T06:55:57.157Z,35.00
2019-06-26T06:58:46.619Z,35.50
2019-06-26T07:01:36.067Z,36.00
2019-06-26T07:04:25.210Z,35.80
2019-06-26T07:07:13.986Z,35.70
2019-06-26T07:10:02.995Z,35.20
2019-06-26T07:12:56.086Z,36.20
2019-06-26T07:15:45.533Z,36.30
2019-06-26T07:18:34.751Z,35.80
2019-06-26T07:21:24.048Z,35.90
2019-06-26T07:24:13.669Z,35.80
2019-06-26T07:27:03.810Z,36.10
2019-06-26T07:29:52.870Z,36.60
2019-06-26T07:32:41.751Z,36.10
2019-06-26T07:35:30.717Z,36.30
2019-06-26T07:38:19.932Z,36.00
2019-06-26T07:41:08.518Z,35.50
2019-06-26T07:43:57.530Z,35.20
2019-06-26T07:46:46.679Z,35.30
2019-06-26T07:49:35.779Z,35.50
2019-06-26T07:52:24.998Z,36.10
2019-06-26T07:55:15.095Z,35.90
2019-06-26T07:58:04.294Z,35.70
2019-06-26T08:00:53.771Z,35.90
2019-06-26T08:03:42.841Z,36.40
2019-06-26T08:06:31.812Z,36.80
2019-06-26T08:09:21.560Z,36.20
2019-06-26T08:12:11.125Z,36.70
2019-06-26T08:15:00.924Z,37.10
2019-06-26T08:18:00.508Z,38.20
2019-06-26T08:21:00.531Z,37.90
2019-06-26T08:23:32.083Z,36.90
2019-06-26T08:26:21.769Z,37.30
2019-06-26T08:29:10.810Z,37.70
2019-06-26T08:32:00.210Z,38.60
2019-06-26T08:34:49.545Z,38.30
2019-06-26T08:37:38.763Z,38.10
2019-06-26T08:40:28.325Z,37.80
2019-06-26T08:43:17.405Z,37.50
2019-06-26T08:46:06.955Z,38.10
2019-06-26T08:48:56.680Z,37.70
2019-06-26T08:51:46.033Z,38.30
2019-06-26T08:54:35.314Z,38.60
2019-06-26T08:57:24.634Z,37.90
2019-06-26T09:00:15.396Z,37.00
2019-06-26T09:03:05.026Z,37.20
2019-06-26T09:05:54.695Z,38.40
2019-06-26T09:08:43.760Z,38.10
2019-06-26T09:11:32.920Z,38.40
2019-06-26T09:14:22.065Z,39.30
2019-06-26T09:17:11.422Z,39.60
2019-06-26T09:20:00.227Z,38.80
2019-06-26T09:22:49.356Z,38.30
2019-06-26T09:25:38.444Z,38.10
2019-06-26T09:28:28.221Z,37.50
2019-06-26T09:31:18.624Z,37.50
2019-06-26T09:34:07.758Z,38.00
2019-06-26T09:36:56.728Z,38.50
2019-06-26T09:39:45.335Z,39.10
2019-06-26T09:42:34.862Z,39.10
2019-06-26T09:45:24.441Z,38.60
2019-06-26T09:48:13.919Z,38.00
2019-06-26T09:51:02.808Z,38.80
2019-06-26T09:53:51.922Z,38.80
2019-06-26T09:56:40.843Z,39.60
2019-06-26T09:59:29.622Z,39.50
2019-06-26T10:02:19.113Z,39.80
2019-06-26T10:05:08.376Z,39.90
2019-06-26T10:07:57.857Z,41.10
2019-06-26T10:10:47.224Z,39.90
2019-06-26T10:13:36.432Z,38.00
2019-06-26T10:16:25.810Z,38.00
2019-06-26T10:19:15.210Z,38.30
2019-06-26T10:22:04.598Z,38.50
2019-06-26T10:24:54.252Z,38.10
2019-06-26T10:27:43.572Z,37.80
2019-06-26T10:30:33.092Z,38.20
2019-06-26T10:33:22.176Z,39.00
2019-06-26T10:36:11.492Z,38.80
2019-06-26T10:39:00.824Z,38.10
2019-06-26T10:41:53.896Z,38.80
2019-06-26T10:44:41.268Z,39.20
2019-06-26T10:47:30.676Z,39.20
2019-06-26T10:50:20.503Z,39.10
2019-06-26T10:53:09.983Z,38.20
2019-06-26T10:55:58.895Z,38.60
2019-06-26T10:58:48.606Z,40.00
2019-06-26T11:01:37.586Z,40.70
2019-06-26T11:04:27.150Z,40.00
2019-06-26T11:07:16.488Z,38.60
2019-06-26T11:10:06.998Z,37.90
2019-06-26T11:12:56.247Z,37.50
2019-06-26T11:15:45.843Z,37.10
2019-06-26T11:18:35.529Z,36.80
2019-06-26T11:21:24.986Z,36.40
2019-06-26T11:24:14.100Z,36.20
2019-06-26T11:27:02.926Z,36.20
2019-06-26T11:29:51.931Z,35.80
2019-06-26T11:32:41.554Z,35.50
2019-06-26T11:35:31.757Z,35.40
2019-06-26T11:38:20.720Z,35.30
2019-06-26T11:41:10.730Z,35.30
2019-06-26T11:44:00.035Z,35.20
2019-06-26T11:46:50.162Z,35.50
2019-06-26T11:49:39.366Z,35.40
2019-06-26T11:52:28.902Z,35.40
2019-06-26T11:55:19.174Z,35.80
2019-06-26T11:58:08.598Z,35.40
2019-06-26T12:00:57.625Z,35.10
2019-06-26T12:03:46.780Z,35.10
2019-06-26T12:06:36.067Z,35.20
2019-06-26T12:09:25.111Z,35.30
2019-06-26T12:12:14.447Z,35.60
2019-06-26T12:15:04.991Z,35.20
2019-06-26T12:17:54.227Z,35.30
2019-06-26T12:20:43.737Z,35.40
2019-06-26T12:23:33.135Z,35.20
2019-06-26T12:26:22.126Z,35.10
2019-06-26T12:29:11.852Z,35.30
2019-06-26T12:32:01.435Z,35.70
2019-06-26T12:34:50.386Z,35.70
2019-06-26T12:37:40.052Z,35.30
2019-06-26T12:40:31.255Z,35.10
2019-06-26T12:43:19.705Z,35.00
2019-06-26T12:46:08.666Z,35.00
2019-06-26T12:48:58.187Z,35.30
2019-06-26T12:51:47.426Z,35.30
2019-06-26T12:54:37.004Z,35.20
2019-06-26T12:57:26.156Z,35.40
2019-06-26T13:00:17.401Z,35.30
2019-06-26T13:03:07.278Z,35.40
2019-06-26T13:05:56.151Z,35.50
2019-06-26T13:08:45.671Z,35.50
2019-06-26T13:11:34.911Z,35.50
2019-06-26T13:14:23.887Z,35.40
2019-06-26T13:17:13.505Z,34.70
2019-06-26T13:20:02.656Z,34.60
2019-06-26T13:22:52.048Z,34.60
2019-06-26T13:25:41.442Z,34.70
2019-06-26T13:28:31.229Z,34.90
2019-06-26T13:31:20.524Z,34.90
2019-06-26T13:34:10.175Z,35.00
2019-06-26T13:36:59.040Z,35.00
2019-06-26T13:39:48.696Z,34.80
2019-06-26T13:42:37.947Z,34.80
2019-06-26T13:45:27.325Z,34.60
2019-06-26T13:48:16.420Z,34.50
2019-06-26T13:51:09.673Z,34.30
2019-06-26T13:53:57.022Z,34.30
2019-06-26T13:56:46.967Z,34.20
2019-06-26T13:59:35.758Z,34.60
2019-06-26T14:02:24.670Z,34.70
2019-06-26T14:05:14.200Z,34.70
2019-06-26T14:08:03.070Z,34.40
2019-06-26T14:10:52.521Z,34.30
2019-06-26T14:13:42.129Z,34.20
2019-06-26T14:16:31.891Z,34.40
2019-06-26T14:19:20.841Z,34.30
2019-06-26T14:22:12.961Z,34.10
2019-06-26T14:25:00.936Z,34.20
2019-06-26T14:27:50.452Z,34.30
2019-06-26T14:30:39.864Z,34.30
2019-06-26T14:33:28.670Z,34.40
2019-06-26T14:36:17.774Z,34.40
2019-06-26T14:39:08.435Z,34.40
2019-06-26T14:41:57.922Z,34.30
2019-06-26T14:44:47.361Z,34.30
2019-06-26T14:47:36.022Z,34.20
2019-06-26T14:50:25.719Z,34.00
2019-06-26T14:53:14.651Z,33.90
2019-06-26T14:56:03.803Z,33.90
2019-06-26T14:58:53.263Z,34.00
2019-06-26T15:01:42.358Z,33.80
2019-06-26T15:04:31.510Z,33.80
2019-06-26T15:07:20.809Z,33.60
2019-06-26T15:10:10.855Z,33.70
2019-06-26T15:13:00.446Z,33.40
2019-06-26T15:15:49.949Z,33.40
2019-06-26T15:18:39.288Z,33.50
2019-06-26T15:21:27.999Z,33.70
2019-06-26T15:24:17.047Z,33.50
2019-06-26T15:27:05.807Z,33.50
2019-06-26T15:29:55.534Z,33.30
2019-06-26T15:32:44.598Z,33.40
2019-06-26T15:35:35.538Z,33.20
2019-06-26T15:38:25.008Z,33.30
2019-06-26T15:41:13.778Z,33.40
2019-06-26T15:44:02.784Z,33.30
2019-06-26T15:46:52.027Z,33.30
2019-06-26T15:49:41.179Z,33.20
2019-06-26T15:52:31.585Z,33.30
2019-06-26T15:55:21.097Z,33.30
2019-06-26T15:58:10.927Z,33.20
2019-06-26T16:00:59.629Z,33.10
2019-06-26T16:03:48.371Z,33.00
2019-06-26T16:06:37.624Z,33.00
2019-06-26T16:09:26.633Z,33.00
2019-06-26T16:12:15.487Z,32.90
2019-06-26T16:15:04.984Z,32.80
2019-06-26T16:18:19.267Z,32.90
2019-06-26T16:21:08.438Z,32.90
2019-06-26T16:23:57.853Z,32.90
2019-06-26T16:26:46.936Z,32.80
2019-06-26T16:29:36.057Z,32.80
2019-06-26T16:32:25.228Z,32.70
2019-06-26T16:35:14.932Z,32.60
2019-06-26T16:38:03.803Z,32.50
2019-06-26T16:40:52.799Z,32.40
2019-06-26T16:43:42.397Z,32.20
2019-06-26T16:46:31.809Z,32.10
2019-06-26T16:49:20.553Z,31.90
2019-06-26T16:52:09.749Z,31.90
2019-06-26T16:54:59.166Z,32.00
2019-06-26T16:57:48.479Z,31.90
2019-06-26T17:00:37.982Z,31.80
2019-06-26T17:03:26.936Z,31.70
2019-06-26T17:06:16.394Z,31.70
2019-06-26T17:09:08.395Z,31.70
2019-06-26T17:11:57.129Z,31.70
2019-06-26T17:14:47.179Z,31.70
2019-06-26T17:17:36.641Z,31.60
2019-06-26T17:20:25.662Z,31.60
2019-06-26T17:23:15.109Z,31.30
2019-06-26T17:26:04.343Z,31.30
2019-06-26T17:28:54.177Z,31.30
2019-06-26T17:31:43.205Z,31.30
2019-06-26T17:34:32.832Z,31.20
2019-06-26T17:37:21.851Z,31.10
2019-06-26T17:40:11.774Z,31.00
2019-06-26T17:43:11.929Z,31.10
2019-06-26T17:45:51.894Z,31.10
2019-06-26T17:48:41.266Z,30.90
2019-06-26T17:51:30.368Z,30.90
2019-06-26T17:54:19.009Z,30.90
2019-06-26T17:57:07.908Z,30.70
2019-06-26T17:59:56.787Z,30.60
2019-06-26T18:02:45.836Z,30.40
2019-06-26T18:05:35.539Z,30.30
2019-06-26T18:08:25.214Z,30.20
2019-06-26T18:11:14.756Z,30.20
2019-06-26T18:14:03.886Z,30.10
2019-06-26T18:16:53.209Z,30.00
2019-06-26T18:19:42.855Z,29.90
2019-06-26T18:22:31.827Z,29.90
2019-06-26T18:25:21.009Z,29.80
2019-06-26T18:28:09.760Z,29.70
2019-06-26T18:30:59.080Z,29.60
2019-06-26T18:33:48.658Z,29.50
2019-06-26T18:36:38.173Z,29.40
2019-06-26T18:39:27.712Z,29.30
2019-06-26T18:42:18.074Z,29.20
2019-06-26T18:45:07.606Z,29.10
2019-06-26T18:47:56.568Z,29.10
2019-06-26T18:50:45.509Z,29.00
2019-06-26T18:53:35.014Z,29.00
2019-06-26T18:56:23.960Z,28.80
2019-06-26T18:59:13.208Z,28.80
2019-06-26T19:02:02.331Z,28.80
2019-06-26T19:04:54.097Z,28.80
2019-06-26T19:07:42.676Z,28.70
2019-06-26T19:10:31.442Z,28.50
2019-06-26T19:13:20.877Z,28.50
2019-06-26T19:16:10.770Z,28.30
2019-06-26T19:18:59.646Z,28.20
2019-06-26T19:21:48.517Z,28.20
2019-06-26T19:24:38.179Z,28.20
2019-06-26T19:27:27.853Z,28.10
2019-06-26T19:30:17.802Z,28.00
2019-06-26T19:33:07.132Z,28.00
2019-06-26T19:35:56.290Z,27.90
2019-06-26T19:38:45.559Z,27.80
2019-06-26T19:41:35.043Z,27.70
2019-06-26T19:44:24.325Z,27.60
2019-06-26T19:47:13.861Z,27.50
2019-06-26T19:50:03.461Z,27.50
2019-06-26T19:52:53.139Z,27.40
2019-06-26T19:55:42.241Z,27.30
2019-06-26T19:58:31.247Z,27.30
2019-06-26T20:01:20.118Z,27.20
2019-06-26T20:04:09.523Z,27.10
2019-06-26T20:06:59.012Z,27.10
2019-06-26T20:09:47.873Z,27.00
2019-06-26T20:12:36.814Z,26.90
2019-06-26T20:15:25.691Z,26.80
2019-06-26T20:18:14.861Z,26.70
2019-06-26T20:21:04.210Z,26.60
2019-06-26T20:23:53.565Z,26.50
2019-06-26T20:26:42.557Z,26.50
2019-06-26T20:29:32.494Z,26.50
2019-06-26T20:32:21.888Z,26.50
2019-06-26T20:35:10.773Z,26.40
2019-06-26T20:38:00.210Z,26.40
2019-06-26T20:40:49.962Z,26.30
2019-06-26T20:43:39.124Z,26.20
2019-06-26T20:46:28.221Z,26.30
2019-06-26T20:49:17.077Z,26.20
2019-06-26T20:52:06.612Z,26.10
2019-06-26T20:55:00.996Z,26.00
2019-06-26T20:57:46.678Z,26.00
2019-06-26T21:00:36.197Z,26.00
2019-06-26T21:03:25.557Z,25.90
2019-06-26T21:06:15.171Z,25.80
2019-06-26T21:09:05.318Z,25.70
2019-06-26T21:11:54.547Z,25.70
2019-06-26T21:14:43.998Z,25.60
2019-06-26T21:17:33.795Z,25.70
2019-06-26T21:20:23.017Z,25.70
2019-06-26T21:23:18.372Z,25.70
2019-06-26T21:26:03.379Z,25.60
2019-06-26T21:28:52.571Z,25.50
2019-06-26T21:31:42.440Z,25.50
2019-06-26T21:34:31.723Z,25.40
2019-06-26T21:37:20.978Z,25.40
2019-06-26T21:40:10.410Z,25.50
2019-06-26T21:42:59.289Z,25.50
2019-06-26T21:45:48.919Z,25.50
2019-06-26T21:48:38.322Z,25.50
2019-06-26T21:51:27.557Z,25.60
2019-06-26T21:54:17.544Z,25.40
2019-06-26T21:57:09.297Z,25.40
2019-06-26T21:59:58.173Z,25.30
2019-06-26T22:02:47.431Z,25.40
2019-06-26T22:05:36.281Z,25.40
2019-06-26T22:08:25.603Z,25.30
2019-06-26T22:11:14.863Z,25.30
2019-06-26T22:14:04.122Z,25.30
2019-06-26T22:16:53.100Z,25.20
2019-06-26T22:19:42.046Z,25.10
2019-06-26T22:22:31.851Z,25.10
2019-06-26T22:25:20.823Z,25.10
2019-06-26T22:28:10.479Z,25.00
2019-06-26T22:30:59.924Z,25.00
2019-06-26T22:33:48.974Z,25.00
2019-06-26T22:36:38.576Z,25.00
2019-06-26T22:39:27.359Z,25.00
2019-06-26T22:42:15.961Z,24.90
2019-06-26T22:45:05.521Z,24.80
2019-06-26T22:47:54.722Z,24.60
2019-06-26T22:50:43.653Z,24.50
2019-06-26T22:53:32.643Z,24.50
2019-06-26T22:56:21.159Z,24.50
2019-06-26T22:59:09.993Z,24.30
2019-06-26T23:01:59.581Z,24.30
2019-06-26T23:04:48.899Z,24.20
2019-06-26T23:07:38.455Z,24.10
2019-06-26T23:10:27.902Z,24.00
2019-06-26T23:13:17.635Z,23.90
2019-06-26T23:16:07.007Z,23.80
2019-06-26T23:18:55.816Z,23.80
2019-06-26T23:21:45.248Z,23.70
2019-06-26T23:24:34.037Z,23.60
2019-06-26T23:27:23.235Z,23.60
2019-06-26T23:30:18.790Z,23.50
2019-06-26T23:33:07.383Z,23.50
2019-06-26T23:35:56.554Z,23.50
2019-06-26T23:38:45.811Z,23.50
2019-06-26T23:41:35.416Z,23.50
2019-06-26T23:44:25.282Z,23.30
2019-06-26T23:47:14.344Z,23.30
2019-06-26T23:50:03.477Z,23.10
2019-06-26T23:52:52.875Z,23.00
2019-06-26T23:55:41.942Z,23.00
2019-06-26T23:58:31.362Z,22.90
